Terminal Aerodrome Forecast
Issued by NWS Detroit/Pontiac, MI

Home | Current Version | Previous Version | Text Only | Print | Product List | Glossary On
Versions: 1 2 3 4 5 6 7 8 9 10 11 12 13 14 15 16 17 18 19 20 21 22 23 24 25 26 27 28 29 30 31
000
FTUS43 KDTX 020900 AAB
TAFDTW
TAF AMD
KDTW 020906Z 0209/0312 00000KT 1/2SM FG VV002
     FM021300 VRB03KT 1SM BR BKN004
     FM021500 16007KT P6SM BKN060 OVC150
     FM022000 16010KT P6SM BKN050 OVC100
     FM030200 17012KT P6SM BKN100 OVC200=

USA.gov is the U.S. government's official web portal to all federal, state and local government web resources and services.